Date,TemperatureHighF,TemperatureAvgF,TemperatureLowF,DewpointHighF,DewpointAvgF,DewpointLowF,HumidityHigh,HumidityAvg,HumidityLow,PressureMaxIn,PressureMinIn,WindSpeedMaxMPH,WindSpeedAvgMPH,GustSpeedMaxMPH,PrecipitationSumIn
2012-1-1,52.6,43.5,32.2,45.0,38.2,30.2,97,82,59,30.11,29.70,8,3,17,0.02
2012-1-2,43.2,34.8,28.2,31.0,20.9,13.0,75,57,39,29.89,29.79,10,5,17,0.00
2012-1-3,28.7,24.2,15.8,19.9,10.6,-1.2,78,57,34,30.23,29.88,9,4,18,0.00
2012-1-4,28.0,19.7,10.4,16.1,7.8,-0.1,68,60,52,30.32,29.99,5,2,9,0.00
2012-1-5,40.3,31.1,22.8,25.3,22.0,15.2,82,69,54,30.00,29.93,6,1,12,0.00
2012-1-6,56.5,44.1,28.0,32.9,28.6,22.4,80,56,38,29.94,29.78,4,1,9,0.00
2012-1-7,63.2,51.6,42.5,43.1,31.9,23.3,58,47,33,30.03,29.74,6,2,13,0.00
2012-1-8,45.5,37.4,26.7,29.7,26.1,21.4,80,64,50,30.34,30.03,7,2,11,0.00
2012-1-9,39.0,31.4,24.9,30.1,23.5,20.5,88,73,50,30.35,30.01,3,1,5,0.00
2012-1-10,47.1,36.2,28.2,33.2,29.9,25.6,95,79,55,30.05,29.95,5,1,8,0.00
2012-1-11,48.5,37.0,24.3,40.7,32.3,22.6,96,84,60,30.06,29.61,8,3,15,0.32
2012-1-12,51.9,46.8,41.9,47.5,45.2,40.8,98,94,84,29.61,29.36,7,2,15,0.55
2012-1-13,49.3,32.9,25.0,46.5,23.9,12.9,93,70,53,29.91,29.25,9,6,18,0.06
2012-1-14,32.3,27.2,24.3,18.9,16.7,14.8,74,64,54,30.14,29.91,6,3,13,0.00
2012-1-15,26.7,21.2,14.4,17.4,8.8,2.5,79,60,39,30.59,30.14,5,2,10,0.00
2012-1-16,35.8,25.3,12.7,30.3,16.6,8.3,86,70,49,30.61,30.14,7,3,12,0.05
2012-1-17,53.9,44.0,35.1,47.5,39.5,30.6,95,84,74,30.14,29.61,6,3,14,0.25
2012-1-18,54.4,35.3,21.9,47.2,22.2,12.7,78,59,45,30.18,29.63,12,5,23,0.00
2012-1-19,32.9,26.2,17.0,25.2,16.9,11.6,86,68,48,30.24,29.92,6,2,14,0.00
2012-1-20,33.1,26.8,21.3,26.6,13.2,7.2,78,57,43,30.31,29.95,6,2,11,0.00
2012-1-21,27.9,25.2,22.3,24.8,22.2,11.9,95,89,54,30.33,29.98,5,1,8,0.00
2012-1-22,27.4,24.3,19.9,25.1,18.8,12.8,91,79,70,30.51,30.33,3,1,6,0.00
2012-1-23,40.6,34.1,27.1,40.1,33.2,24.9,99,96,91,30.38,29.90,6,2,13,0.16
2012-1-24,49.9,40.9,33.0,42.9,36.0,29.8,99,84,59,30.20,29.92,9,2,16,0.00
2012-1-25,42.5,37.0,34.0,31.8,29.2,26.5,87,73,61,30.37,30.19,4,2,11,0.00
2012-1-26,43.7,38.0,33.9,43.1,35.5,30.4,98,91,80,30.23,29.75,5,2,9,0.13
2012-1-27,59.0,49.2,39.2,56.2,44.1,28.4,99,83,63,29.95,29.42,11,5,17,0.32
2012-1-28,46.9,40.0,33.5,33.4,27.6,16.6,77,62,42,30.13,29.90,9,3,21,0.00
2012-1-29,44.1,36.9,30.7,30.6,17.2,13.6,90,46,32,30.24,30.02,10,3,19,0.00
2012-1-30,38.6,33.5,27.8,27.4,19.0,14.4,78,56,38,30.36,30.09,5,3,11,0.00
2012-1-31,63.6,49.0,35.2,34.2,28.5,20.9,62,47,31,30.20,30.02,5,3,10,0.00
2012-2-1,63.2,54.8,46.7,47.0,39.8,30.0,78,58,40,30.02,29.93,6,2,11,0.02
2012-2-2,47.6,41.2,36.5,40.4,33.7,24.3,92,75,59,30.31,29.96,8,2,15,0.00
2012-2-3,45.0,35.0,25.2,27.8,24.7,21.0,86,67,48,30.50,30.30,5,1,12,0.00
2012-2-4,40.8,33.3,26.2,32.9,29.0,22.5,96,85,61,30.37,30.12,2,0,6,0.00
2012-2-5,41.2,34.3,27.8,31.9,27.1,23.0,96,76,56,30.22,30.10,4,1,9,0.00
2012-2-6,50.8,38.0,25.5,30.6,26.1,21.6,92,65,36,30.23,30.03,4,1,9,0.00
2012-2-7,48.6,38.8,30.3,31.9,28.0,24.4,83,66,48,30.24,30.04,5,2,10,0.00
2012-2-8,35.4,31.1,26.5,30.5,27.8,24.0,97,88,68,30.29,30.13,3,0,8,0.00
2012-2-9,41.2,32.1,25.4,30.0,23.9,19.8,97,73,48,30.25,30.13,6,2,10,0.10
2012-2-10,40.7,31.9,20.4,31.4,24.7,17.4,96,76,52,30.18,29.91,3,1,5,0.02
2012-2-11,34.4,30.2,20.8,32.8,28.4,14.4,98,93,77,29.92,29.62,8,2,14,0.13
2012-2-12,28.4,23.5,16.4,16.0,12.6,7.2,76,63,54,30.09,29.85,9,6,22,0.00
2012-2-13,44.2,32.1,22.2,23.1,18.2,13.8,73,57,39,30.16,30.04,6,3,11,0.02
2012-2-14,50.1,39.2,30.2,36.4,27.5,19.8,86,64,39,30.10,29.95,6,1,10,0.00
2012-2-15,48.1,39.5,29.2,35.6,33.0,25.8,93,78,55,30.30,30.01,6,2,10,0.00
2012-2-16,42.1,37.1,28.1,40.7,34.4,25.7,95,90,81,30.30,30.01,6,2,12,0.12
2012-2-17,48.4,42.3,36.9,40.2,32.1,25.3,98,70,41,30.08,29.99,7,2,12,0.03
2012-2-18,51.9,40.1,27.4,34.0,25.7,20.0,75,57,40,30.11,29.87,5,2,11,0.00
2012-2-19,43.7,35.8,26.9,28.1,25.0,21.3,83,65,51,30.11,29.92,3,1,5,0.00
2012-2-20,44.0,35.0,27.6,24.0,21.8,20.1,75,59,41,30.36,29.98,5,2,11,0.00
2012-2-21,45.4,36.1,22.4,33.3,25.5,16.3,87,66,46,30.36,29.83,10,3,18,0.00
2012-2-22,58.6,48.7,39.6,37.6,34.4,27.3,81,60,31,29.83,29.43,6,2,16,0.00
2012-2-23,59.6,52.1,45.8,40.6,34.3,27.0,75,52,31,29.69,29.39,8,2,12,0.00
2012-2-24,49.6,41.9,38.7,42.9,37.7,26.4,98,87,45,29.62,29.40,10,3,15,0.27
2012-2-25,41.1,36.7,32.9,29.0,23.1,18.4,72,58,44,30.16,29.57,12,7,21,0.00
2012-2-26,44.7,36.6,31.6,28.4,22.7,19.3,81,58,44,30.45,30.16,6,2,13,0.00
2012-2-27,60.2,45.8,31.0,34.5,30.6,25.3,91,59,34,30.41,30.11,7,3,12,0.00
2012-2-28,50.4,41.4,32.4,27.6,24.5,21.6,66,52,37,30.45,30.23,8,3,17,0.00
2012-2-29,44.4,39.7,34.3,43.9,35.9,25.3,98,87,58,30.34,29.65,7,2,12,1.22
2012-3-1,51.4,44.8,39.1,46.2,40.2,28.9,99,85,64,29.97,29.60,5,2,9,0.01
2012-3-2,50.0,40.1,29.2,42.6,34.5,26.6,98,81,59,30.07,29.67,10,4,18,0.12
2012-3-3,57.3,47.5,40.9,46.2,35.2,17.4,99,68,23,29.72,29.51,8,3,17,0.05
2012-3-4,43.3,37.3,30.4,27.1,23.8,19.8,77,59,42,29.84,29.65,6,3,13,0.00
2012-3-5,41.9,34.0,25.5,27.9,21.6,14.4,91,62,38,30.44,29.84,6,3,11,0.00
2012-3-6,45.9,33.6,19.6,29.3,18.6,11.5,79,55,35,30.67,30.44,5,2,8,0.00
2012-3-7,62.3,49.3,34.1,44.2,34.7,28.4,84,60,35,30.56,30.30,6,3,13,0.00
2012-3-8,71.9,61.4,50.9,53.1,48.6,43.9,86,64,48,30.30,29.86,8,5,16,0.00
2012-3-9,65.0,43.8,34.7,52.3,27.0,16.4,89,53,36,30.33,29.87,10,5,17,0.05
2012-3-10,43.2,34.3,27.2,18.5,13.5,9.8,58,43,28,30.56,30.32,7,2,13,0.00
2012-3-11,62.0,45.2,30.5,35.7,27.3,14.9,72,51,31,30.55,30.36,5,2,9,0.00
2012-3-12,67.1,52.2,35.6,48.7,38.9,33.4,94,64,30,30.37,30.10,6,1,10,0.00
2012-3-13,77.3,65.5,55.4,57.5,52.3,45.9,87,64,41,30.10,29.92,5,2,10,0.05
2012-3-14,75.0,62.8,49.6,46.5,39.5,30.5,77,45,23,30.18,30.00,4,1,8,0.00
2012-3-15,66.7,57.6,46.3,52.5,45.3,37.6,91,65,44,30.22,30.13,6,2,11,0.00
2012-3-16,65.6,51.9,46.0,53.9,48.2,44.9,97,88,66,30.20,30.11,4,1,8,0.00
2012-3-17,71.1,57.3,43.9,57.7,51.3,43.1,99,82,58,30.31,30.17,5,2,11,0.00
2012-3-18,66.8,52.8,46.1,55.6,49.6,45.6,99,90,66,30.36,30.20,6,2,10,0.00
2012-3-19,74.0,59.7,47.8,60.8,54.4,47.3,99,84,61,30.21,30.14,6,2,10,0.00
2012-3-20,73.6,64.0,58.4,62.5,59.4,56.2,98,86,61,30.28,30.18,5,2,8,0.00
2012-3-21,68.8,61.6,56.6,61.1,58.0,54.3,97,88,73,30.33,30.24,2,0,4,0.00
2012-3-22,68.7,60.3,54.2,62.6,58.2,53.2,99,93,80,30.26,30.11,2,0,4,0.00
2012-3-23,79.1,62.9,48.6,64.1,55.7,48.3,99,80,48,30.11,29.97,5,1,9,0.01
2012-3-24,61.6,54.3,48.7,56.8,51.4,46.9,96,90,73,30.00,29.89,5,2,14,0.35
2012-3-25,63.9,51.6,45.7,54.9,49.0,45.2,99,91,71,29.91,29.73,3,1,5,0.01
2012-3-26,56.0,48.7,34.7,52.2,31.1,10.4,90,54,28,30.22,29.75,9,3,20,0.00
2012-3-27,51.1,38.8,27.6,23.6,15.0,9.5,60,39,22,30.37,30.17,4,2,8,0.00
2012-3-28,68.4,55.8,39.2,55.7,40.7,19.6,76,57,39,30.18,29.59,5,2,11,0.04
2012-3-29,63.6,52.4,37.5,46.0,37.2,29.9,74,57,46,30.04,29.63,8,4,14,0.00
2012-3-30,57.1,43.6,32.3,38.5,32.5,26.1,83,66,47,30.13,29.84,8,2,12,0.00
2012-3-31,45.2,43.0,41.5,42.1,40.8,37.6,96,92,78,29.94,29.73,10,2,16,0.23
2012-4-1,59.9,47.9,40.7,47.8,42.9,39.2,96,84,57,29.91,29.58,5,1,7,0.20
2012-4-2,58.7,48.6,40.2,48.1,32.2,21.3,97,58,25,29.93,29.57,6,2,16,0.07
2012-4-3,66.4,50.6,33.5,34.3,25.3,20.2,66,39,20,30.02,29.78,5,1,10,0.00
2012-4-4,72.0,59.8,50.1,41.9,34.0,26.1,61,40,20,29.79,29.54,6,2,13,0.00
2012-4-5,58.4,48.6,37.1,33.6,29.3,26.3,69,48,33,29.93,29.76,4,1,10,0.00
2012-4-6,58.7,46.2,32.1,29.3,24.1,15.6,73,45,24,30.09,29.93,5,2,12,0.00
2012-4-7,63.2,48.4,35.3,24.3,20.6,16.6,56,35,18,30.18,30.01,7,2,14,0.00
2012-4-8,68.2,53.6,39.3,38.6,27.8,18.6,55,38,19,30.09,29.75,9,4,17,0.00
2012-4-9,63.3,54.5,45.7,37.4,29.4,23.8,65,39,26,29.85,29.70,10,4,17,0.00
2012-4-10,59.0,49.8,40.9,37.4,31.0,24.9,79,51,29,29.85,29.71,8,3,14,0.00
2012-4-11,51.1,42.5,32.9,36.7,31.7,27.8,85,67,42,30.00,29.84,7,3,14,0.00
2012-4-12,58.1,49.3,37.6,36.9,33.3,28.9,83,56,36,30.16,30.00,5,2,12,0.00
2012-4-13,63.0,50.0,33.9,34.3,31.2,28.3,82,51,27,30.27,30.16,4,1,10,0.00
2012-4-14,72.2,58.7,38.4,43.9,35.6,30.1,77,45,23,30.24,30.03,4,1,7,0.00
2012-4-15,80.2,69.4,55.0,59.0,55.2,45.2,89,62,46,30.06,29.96,4,2,8,0.08
2012-4-16,87.5,74.7,57.1,64.1,58.8,54.2,92,60,37,30.02,29.88,7,2,15,0.00
2012-4-17,74.1,66.8,56.9,58.4,44.0,32.4,63,45,27,30.18,29.91,6,3,12,0.00
2012-4-18,57.4,52.0,48.4,47.6,40.6,32.2,96,67,47,30.27,30.12,3,1,5,0.14
2012-4-19,71.3,57.2,48.5,53.3,48.3,39.3,98,76,34,30.13,29.99,4,1,7,0.04
2012-4-20,72.2,59.5,45.5,56.5,51.4,44.7,98,77,52,30.02,29.82,7,2,14,0.00
2012-4-21,76.6,63.4,52.1,62.4,57.1,50.0,96,81,55,29.82,29.60,7,3,12,0.52
2012-4-22,52.1,47.0,43.0,50.1,44.9,41.7,97,93,85,29.79,29.35,5,2,10,1.65
2012-4-23,44.6,40.8,38.3,42.1,38.6,34.8,98,92,80,29.46,29.25,5,3,10,0.19
2012-4-24,60.4,48.0,35.7,35.1,30.7,24.8,87,55,30,29.73,29.44,6,3,14,0.00
2012-4-25,65.8,51.6,37.4,39.2,33.1,24.9,86,54,23,29.88,29.73,5,2,11,0.00
2012-4-26,60.1,52.4,41.9,56.7,47.2,32.8,97,83,59,29.89,29.59,7,1,13,0.04
2012-4-27,56.6,48.9,40.3,51.8,33.8,28.8,84,57,38,30.18,29.68,9,4,16,0.00
2012-4-28,47.2,38.5,33.0,31.5,29.0,25.6,82,70,46,30.30,30.17,3,0,5,0.00
2012-4-29,66.3,57.0,48.4,33.7,29.0,23.7,52,36,21,30.25,30.11,4,1,12,0.00
2012-4-30,59.4,50.3,33.7,47.1,33.7,22.6,80,54,32,30.34,30.13,6,2,11,0.00
2012-5-1,79.8,64.1,53.3,63.8,55.9,46.9,96,76,48,30.13,29.95,7,2,12,0.04
2012-5-2,62.8,57.4,52.7,58.8,54.5,50.8,95,90,85,30.13,29.98,6,3,9,0.03
2012-5-3,76.5,62.5,52.3,67.6,58.9,51.3,98,89,70,30.17,30.01,5,2,9,0.24
2012-5-4,83.6,67.5,56.4,71.4,63.1,55.9,99,87,64,30.02,29.83,6,2,9,0.11
2012-5-5,77.5,67.8,60.6,66.9,62.9,58.1,99,85,63,30.01,29.84,5,2,10,0.00
2012-5-6,64.5,60.7,56.2,58.3,57.0,53.3,96,88,78,30.08,29.98,4,2,7,0.00
2012-5-7,61.6,56.4,50.2,56.0,51.8,48.6,95,85,71,30.11,30.01,6,3,11,0.01
2012-5-8,69.3,62.0,57.1,61.7,57.0,45.8,94,84,64,30.02,29.77,7,4,15,0.13
2012-5-9,73.0,65.7,56.4,64.6,59.5,53.8,97,82,60,29.78,29.61,5,2,9,0.14
2012-5-10,64.8,57.2,50.1,55.7,45.5,36.8,98,68,38,29.89,29.56,8,4,18,0.03
2012-5-11,71.8,59.0,44.7,41.5,38.3,34.3,76,49,27,30.14,29.89,6,2,13,0.00
2012-5-12,80.1,65.4,45.1,50.1,44.4,40.1,85,49,30,30.27,30.14,4,1,8,0.00
2012-5-13,82.0,68.4,56.2,61.1,54.4,44.8,82,62,43,30.19,30.07,4,1,10,0.00
2012-5-14,65.2,63.1,60.8,63.5,60.4,57.8,97,91,82,30.11,30.02,4,2,9,0.32
2012-5-15,76.1,67.3,61.7,68.7,64.3,60.8,98,90,73,30.04,29.88,5,2,10,0.92
2012-5-16,83.8,71.9,61.4,65.0,60.5,51.3,99,72,34,29.92,29.81,4,1,7,0.00
2012-5-17,72.5,63.3,52.8,58.6,46.4,39.0,82,56,32,30.12,29.91,4,1,10,0.00
2012-5-18,76.4,62.3,46.9,51.5,46.5,42.0,91,60,33,30.20,30.10,5,1,9,0.00
2012-5-19,82.8,67.0,48.0,55.0,49.0,42.3,90,56,30,30.17,30.07,4,1,7,0.00
2012-5-20,81.8,69.3,53.6,62.0,53.5,44.4,86,60,27,30.19,30.11,7,2,15,0.00
2012-5-21,71.8,65.5,61.9,65.4,62.3,60.7,97,90,80,30.13,29.93,6,3,13,0.00
2012-5-22,78.3,67.5,61.5,65.3,62.3,60.6,97,84,62,29.93,29.79,2,1,5,0.00
2012-5-23,80.7,68.8,60.3,68.9,64.2,59.2,98,86,63,29.97,29.83,5,1,12,0.84
2012-5-24,81.3,69.0,64.1,69.5,65.0,62.2,99,88,56,30.10,29.97,9,3,12,0.11
2012-5-25,82.6,73.5,65.2,71.2,67.9,63.1,98,84,63,30.13,30.07,6,2,11,0.00
2012-5-26,88.0,75.9,65.6,75.9,69.8,64.1,98,82,61,30.13,30.05,4,1,7,0.00
2012-5-27,86.6,76.0,66.9,73.8,68.8,65.2,95,80,58,30.12,29.96,5,2,12,0.04
2012-5-28,91.3,77.4,63.4,74.7,69.5,62.8,99,79,55,30.02,29.89,2,1,5,0.01
2012-5-29,91.3,78.4,67.4,74.4,70.6,65.8,97,79,52,29.90,29.67,6,2,12,1.72
2012-5-30,82.3,71.9,65.2,68.0,65.4,59.9,98,82,50,29.78,29.68,4,1,8,0.01
2012-5-31,80.1,70.6,61.0,64.4,56.7,49.8,97,65,37,29.90,29.70,4,1,7,0.00
2012-6-1,75.5,66.0,58.9,68.4,59.6,52.3,98,80,67,29.91,29.63,11,4,17,2.74
2012-6-2,72.4,63.3,55.4,59.1,52.6,47.1,99,71,43,29.80,29.67,5,2,12,0.07
2012-6-3,76.1,64.0,54.0,63.9,53.0,48.9,89,69,42,29.80,29.66,7,2,12,0.10
2012-6-4,69.4,60.4,53.6,58.0,54.4,49.6,97,82,52,29.78,29.61,7,1,10,0.32
2012-6-5,68.5,59.1,49.4,52.2,49.7,46.8,96,73,49,29.94,29.78,3,1,7,0.00
2012-6-6,76.0,62.7,48.4,55.5,51.5,47.3,98,70,39,30.00,29.92,3,0,5,0.00
2012-6-7,79.8,66.3,56.8,58.5,54.8,50.0,93,69,38,29.99,29.90,5,1,9,0.01
2012-6-8,82.3,69.0,54.5,60.1,55.4,51.1,97,66,35,29.99,29.87,5,1,8,0.01
2012-6-9,87.6,75.0,62.2,62.4,57.1,52.7,79,56,33,29.96,29.89,5,1,9,0.00
2012-6-10,92.4,78.3,62.0,65.3,61.6,57.5,90,60,33,30.08,29.95,2,1,4,0.00
2012-6-11,84.8,74.6,65.3,72.2,67.0,60.5,94,78,60,30.13,30.05,9,4,16,0.00
2012-6-12,71.0,68.6,64.9,68.9,67.0,63.1,99,95,89,30.07,29.81,7,4,13,1.11
2012-6-13,78.6,69.9,63.0,67.7,59.9,53.1,99,73,44,30.05,29.83,4,2,12,0.00
2012-6-14,80.9,69.5,59.2,65.3,59.1,54.1,85,71,51,30.22,30.05,5,2,10,0.00
2012-6-15,79.8,69.5,58.1,64.1,59.4,53.5,96,72,48,30.28,30.21,5,2,10,0.00
2012-6-16,80.3,69.1,58.1,59.4,55.1,52.1,84,62,43,30.33,30.17,5,2,12,0.00
2012-6-17,73.7,64.7,57.5,61.2,57.3,54.2,93,78,62,30.22,30.04,6,2,11,0.00
2012-6-18,68.3,62.4,55.9,61.3,58.0,54.1,94,86,75,30.11,30.05,6,3,11,0.00
2012-6-19,83.4,71.5,62.9,73.3,66.6,60.7,96,85,69,30.14,30.05,3,2,7,0.00
2012-6-20,95.3,82.9,68.8,76.0,71.7,67.6,97,72,46,30.11,29.95,3,1,6,0.00
2012-6-21,96.0,84.8,71.2,75.0,71.8,68.9,93,67,44,29.97,29.78,3,1,6,0.00
2012-6-22,92.5,80.8,71.0,75.1,71.6,65.1,97,75,43,29.83,29.71,3,1,7,0.18
2012-6-23,86.0,75.6,65.3,70.0,62.8,54.9,98,69,39,29.98,29.81,4,1,10,0.01
2012-6-24,88.6,75.2,60.3,65.5,62.3,57.4,96,67,41,30.00,29.85,3,1,8,0.00
2012-6-25,80.8,72.6,62.8,67.6,59.3,44.0,92,65,36,29.85,29.66,7,2,13,0.13
2012-6-26,77.8,66.4,54.9,52.9,49.0,45.3,78,55,36,29.83,29.74,7,3,14,0.00
2012-6-27,83.3,71.7,58.1,58.1,53.9,49.3,77,55,35,29.87,29.78,6,2,15,0.00
2012-6-28,92.1,78.3,61.0,66.7,61.3,56.1,85,58,36,29.88,29.71,3,1,7,0.00
2012-6-29,98.5,85.2,69.9,79.3,71.3,62.0,92,64,49,29.74,29.63,4,1,11,0.17
2012-6-30,90.6,78.7,68.8,71.7,68.9,66.6,96,74,47,29.80,29.67,4,1,7,0.03
2012-7-1,95.1,82.3,68.9,74.2,68.5,63.8,92,66,41,29.87,29.75,4,1,8,0.00
2012-7-2,90.0,79.8,69.5,68.2,60.5,52.1,84,55,29,29.93,29.84,5,1,10,0.00
2012-7-3,88.9,72.9,63.0,67.8,61.8,58.3,89,70,38,29.95,29.91,2,0,5,0.00
2012-7-7,84.2,75.8,73.8,71.5,70.0,66.8,89,83,59,29.83,29.77,9,1,12,0.10
2012-7-8,89.3,79.6,72.0,75.2,72.6,69.4,95,80,62,29.85,29.79,3,0,6,0.00
2012-7-9,88.7,79.0,71.0,70.9,64.7,59.4,91,64,40,29.94,29.82,3,1,7,0.00
2012-7-10,86.4,76.4,69.7,70.6,66.6,60.3,96,74,43,30.03,29.93,7,2,11,0.13
2012-7-11,88.0,76.8,64.8,69.7,63.6,59.0,94,66,39,30.14,30.03,5,2,11,0.00
2012-7-12,89.0,77.0,64.2,66.5,62.5,53.3,94,64,36,30.18,30.12,4,1,8,0.00
2012-7-13,88.4,77.5,67.7,67.9,64.3,61.6,86,65,44,30.19,30.13,2,0,4,0.00
2012-7-14,78.4,72.4,64.8,71.7,67.8,63.6,97,86,73,30.21,30.10,3,1,6,1.41
2012-7-15,90.0,78.2,71.2,77.3,73.0,69.3,98,85,62,30.12,29.93,4,1,5,0.57
2012-7-16,91.5,79.3,69.1,75.5,71.1,66.3,99,78,45,29.96,29.80,4,1,8,0.00
2012-7-17,96.2,83.8,68.7,75.5,70.3,65.7,92,66,43,29.87,29.76,3,1,7,0.00
2012-7-18,97.5,82.5,73.0,80.1,72.7,68.6,96,73,53,29.87,29.75,7,1,14,0.10
2012-7-19,86.5,77.1,70.3,77.0,72.8,69.1,97,87,69,29.92,29.84,5,1,8,0.45
2012-7-20,70.2,67.1,62.3,69.2,65.7,60.6,98,96,91,30.02,29.83,4,1,8,0.18
2012-7-21,75.3,67.4,61.8,65.8,62.9,60.7,98,86,67,30.10,29.99,4,1,6,0.17
2012-7-22,82.5,73.0,66.6,71.1,67.4,64.0,94,83,65,30.16,30.08,3,1,7,0.00
2012-7-23,90.4,78.2,68.7,76.8,71.9,67.2,97,82,53,30.10,29.83,2,1,6,0.01
2012-7-24,91.1,82.1,74.2,78.4,72.8,64.7,86,74,58,29.83,29.61,4,1,12,0.03
2012-7-25,86.3,76.1,62.9,64.6,58.9,53.7,77,57,41,29.93,29.75,3,1,7,0.00
2012-7-26,93.9,80.8,70.0,79.7,73.2,65.5,97,79,59,29.78,29.63,4,2,9,1.01
2012-7-27,89.3,79.0,71.0,75.6,72.4,68.6,98,81,58,29.86,29.68,3,1,8,0.01
2012-7-28,87.7,75.9,67.9,75.3,69.9,65.9,96,83,59,29.91,29.83,6,1,12,0.15
2012-7-29,84.9,72.9,65.4,73.1,68.2,64.5,98,86,58,30.02,29.89,3,0,6,0.01
2012-7-30,82.9,73.9,68.0,72.2,69.5,66.9,98,87,66,30.07,29.99,6,2,11,0.01
2012-7-31,83.1,73.9,64.7,71.5,67.5,64.0,98,82,60,30.04,29.86,5,2,9,0.00
2012-8-1,84.2,74.9,67.8,73.7,69.6,65.5,97,84,65,29.89,29.80,4,1,6,0.04
2012-8-2,87.1,76.7,65.6,74.9,70.6,65.0,99,83,59,29.90,29.83,5,1,11,0.01
2012-8-3,92.8,79.1,70.2,78.6,73.1,69.2,98,83,57,30.06,29.89,8,1,13,0.00
2012-8-4,88.5,79.1,72.3,77.6,73.4,69.0,97,83,61,30.15,30.05,7,2,12,0.00
2012-8-5,92.8,80.0,73.0,76.9,73.9,70.0,96,83,54,30.12,29.95,9,2,15,0.19
2012-8-6,87.9,78.9,70.7,74.3,70.1,63.9,98,77,52,30.03,29.94,3,1,6,0.04
2012-8-7,86.5,74.9,64.6,69.6,66.6,62.2,97,77,49,30.00,29.93,3,1,6,0.00
2012-8-8,89.9,78.1,68.6,75.3,69.8,67.0,98,78,50,29.97,29.89,3,1,7,0.00
2012-8-9,90.4,79.8,69.0,76.3,71.5,67.0,95,77,55,29.92,29.80,8,2,14,0.00
2012-8-10,83.9,75.7,71.1,74.2,71.8,69.8,97,88,68,29.82,29.69,4,1,9,0.28
2012-8-11,87.6,76.7,70.1,71.8,69.2,62.6,96,80,51,29.88,29.74,8,1,14,0.35
2012-8-12,83.8,74.2,65.8,66.0,63.0,60.2,89,69,51,29.97,29.87,3,1,6,0.00
2012-8-13,86.0,73.8,61.4,66.6,62.9,59.6,95,71,43,30.03,29.93,3,1,8,0.00
2012-8-14,81.6,73.2,68.0,73.8,69.2,64.0,98,88,73,29.94,29.81,5,2,9,1.39
2012-8-15,80.3,72.4,66.2,72.4,68.4,65.5,98,88,71,29.88,29.80,2,1,5,0.07
2012-8-16,85.3,74.1,63.5,68.2,64.2,59.1,97,74,44,29.96,29.86,3,1,7,0.00
2012-8-17,89.3,79.0,66.0,71.1,68.6,63.3,95,72,49,29.85,29.75,4,1,8,0.18
2012-8-18,82.1,74.1,62.3,65.7,59.5,54.5,89,62,41,29.92,29.84,3,1,6,0.03
2012-8-19,74.4,68.5,57.7,64.0,60.9,56.6,96,77,61,29.97,29.89,5,1,8,0.00
2012-8-20,78.3,69.1,61.3,65.7,61.8,59.0,97,80,55,29.95,29.83,6,2,10,0.28
2012-8-21,82.5,68.0,59.3,66.2,61.1,57.6,98,81,47,30.08,29.94,2,1,4,0.00
2012-8-22,84.2,70.6,58.7,66.7,62.2,57.3,97,77,47,30.14,30.06,3,0,6,0.00
2012-8-23,87.8,73.5,61.2,69.5,63.7,57.8,97,75,38,30.16,30.08,3,1,6,0.00
2012-8-24,87.8,79.6,67.4,69.5,64.9,56.4,91,63,36,30.16,30.10,4,1,7,0.00
2012-8-25,78.6,74.6,68.6,68.4,66.3,63.5,89,76,65,30.22,30.14,5,3,8,0.00
2012-8-26,82.1,75.6,68.1,72.0,68.7,65.4,92,80,65,30.23,30.15,6,4,12,0.00
2012-8-27,87.3,81.8,74.9,72.5,70.9,68.5,90,70,57,30.08,29.92,3,2,6,0.02
2012-8-28,86.3,78.6,68.2,72.1,65.7,59.6,96,67,44,29.91,29.84,5,2,9,0.09
2012-8-29,81.8,74.0,62.4,63.6,59.8,56.4,92,63,43,30.01,29.91,4,1,8,0.00
2012-8-30,85.5,75.8,58.6,64.0,60.8,55.6,96,62,43,30.11,30.00,3,1,6,0.00
2012-8-31,91.3,82.2,63.3,70.4,64.6,58.6,97,58,35,30.08,29.93,3,1,6,0.00
2012-9-1,89.1,83.1,73.0,72.4,67.3,61.1,78,60,43,30.02,29.95,3,1,9,0.00
2012-9-2,78.6,73.1,67.2,73.0,69.5,64.6,96,89,77,30.04,29.95,5,1,8,0.01
2012-9-3,76.8,73.3,70.9,75.0,71.5,69.6,97,94,89,30.06,29.99,6,3,9,0.18
2012-9-4,86.3,78.7,71.8,77.5,74.8,71.5,99,88,72,29.98,29.80,5,2,11,1.24
2012-9-5,76.7,74.4,70.2,72.4,70.0,67.2,92,86,76,29.84,29.77,2,1,7,0.01
2012-9-6,77.5,73.2,69.0,73.0,70.5,66.7,95,91,86,29.89,29.85,2,1,4,0.00
2012-9-7,84.3,73.3,67.1,73.4,68.5,66.2,98,86,59,29.90,29.79,5,1,9,0.00
2012-9-8,82.7,69.1,63.4,73.4,66.6,60.7,98,92,73,29.82,29.57,7,1,14,1.06
2012-9-9,78.0,69.9,59.6,60.8,55.7,51.4,92,62,43,29.93,29.80,5,2,9,0.00
2012-9-10,64.5,58.1,53.6,54.0,50.0,47.5,95,75,54,30.15,29.93,1,0,2,0.00
2012-9-11,75.5,62.2,46.2,52.3,48.8,44.9,96,67,42,30.27,30.22,2,1,6,0.00
2012-9-17,75.5,70.5,60.3,63.7,59.1,50.1,85,68,45,30.12,29.96,6,3,10,0.00
2012-9-18,74.3,69.1,62.2,71.2,67.7,61.3,98,95,86,29.95,29.55,11,4,24,2.55
2012-9-19,64.7,58.1,50.1,61.3,51.4,44.3,97,80,55,30.17,29.78,4,2,9,0.01
2012-9-20,70.5,48.2,44.3,51.8,46.4,43.8,99,94,51,30.18,30.07,4,0,7,0.00
2012-9-21,75.9,63.8,53.2,61.8,57.4,50.9,94,81,60,30.07,29.96,6,3,11,0.00
2012-9-22,73.8,67.2,61.7,66.4,61.2,56.1,89,81,73,29.96,29.76,3,1,5,0.00
2012-9-23,66.2,56.7,47.1,55.9,45.6,41.1,87,68,44,30.15,29.86,6,2,11,0.00
2012-9-24,65.6,58.2,49.3,49.0,43.0,38.8,91,59,39,30.22,30.12,4,1,8,0.00
2012-9-25,67.3,61.5,47.3,57.2,53.5,44.2,89,75,64,30.19,30.06,6,3,10,0.00
2012-9-26,76.2,69.2,62.1,64.1,62.0,57.1,92,79,61,30.09,30.02,3,1,5,0.00
2012-9-27,67.3,64.5,62.1,64.1,62.9,61.2,98,95,89,30.14,30.06,2,0,3,0.26
2012-9-28,76.2,67.3,59.9,66.7,61.3,51.7,99,82,60,30.08,29.93,3,1,6,0.09
2012-9-29,63.5,59.5,54.6,53.2,51.7,49.9,89,76,65,29.98,29.89,4,1,8,0.00
2012-9-30,68.5,56.5,47.9,53.2,50.1,47.1,98,81,48,29.91,29.80,4,1,7,0.00
2012-10-1,73.5,58.2,43.7,55.4,49.4,42.7,98,76,41,29.96,29.86,3,1,7,0.00
2012-10-2,64.2,61.3,58.9,63.9,59.6,55.2,99,94,81,29.98,29.90,3,1,5,2.37
2012-10-3,75.3,68.8,63.7,72.1,67.0,63.4,100,94,80,30.10,29.94,3,0,9,0.13
2012-10-4,75.8,68.8,61.7,72.0,66.2,58.8,99,92,67,30.12,30.06,4,1,8,0.01
2012-10-5,80.2,66.8,53.4,62.7,57.7,52.3,98,74,47,30.10,29.91,3,1,11,0.00
2012-10-6,71.8,62.4,51.9,62.5,54.0,41.8,86,74,57,30.02,29.80,6,2,15,0.00
2012-10-7,52.4,48.3,43.3,46.6,43.6,39.6,96,84,66,30.15,30.01,4,0,7,0.08
2012-10-8,49.7,44.7,38.7,44.4,41.0,36.8,96,87,72,30.31,30.14,2,1,4,0.02
2012-10-9,56.4,50.8,44.6,52.0,47.9,42.1,96,90,78,30.23,30.06,2,0,6,0.03
2012-10-10,64.9,56.7,47.8,55.7,49.6,39.2,99,79,52,30.06,29.84,6,1,14,0.03
2012-10-11,60.4,49.8,39.5,39.3,36.3,32.6,82,61,40,30.25,30.04,4,1,9,0.00
2012-10-12,58.7,47.6,37.6,44.4,36.3,29.2,95,67,38,30.45,30.11,7,2,13,0.00
2012-10-13,55.9,43.1,29.0,35.5,31.2,27.0,94,65,37,30.53,30.27,5,1,8,0.00
2012-10-14,71.4,58.1,42.6,57.6,49.4,35.6,85,74,54,30.28,29.89,7,3,15,0.00
2012-10-15,67.5,62.7,55.1,62.6,58.2,48.0,96,86,74,29.90,29.65,5,2,13,0.47
2012-10-16,59.2,52.2,41.2,47.9,42.6,39.3,93,71,53,29.93,29.75,6,2,12,0.00
2012-10-17,62.7,49.8,36.9,49.0,43.4,35.9,98,80,52,30.02,29.92,4,1,7,0.00
2012-10-18,68.7,57.7,50.0,58.0,52.0,46.8,94,82,55,29.98,29.80,10,4,20,0.03
2012-10-19,73.3,63.5,58.1,65.8,60.5,56.9,99,90,69,29.83,29.59,7,2,12,1.60
2012-10-20,62.9,55.7,48.8,58.2,47.2,40.2,99,76,46,29.90,29.65,5,1,9,0.01
2012-10-21,63.6,52.7,44.2,47.0,42.9,40.6,89,71,47,30.10,29.90,5,2,10,0.00
2012-10-22,67.3,54.5,43.3,47.2,43.3,39.0,86,67,44,30.18,30.08,4,1,7,0.00
2012-10-23,69.3,56.9,47.2,62.7,52.3,44.1,94,85,72,30.16,30.03,4,0,8,0.05
2012-10-24,78.2,63.2,51.7,61.6,56.5,50.9,98,81,50,30.13,30.04,6,1,10,0.00
2012-10-25,61.7,59.5,57.4,58.9,58.0,56.8,98,95,90,30.22,30.13,4,2,8,0.00
2012-10-26,65.0,61.1,58.6,59.7,58.3,57.2,96,90,81,30.20,30.07,4,1,7,0.00
2012-10-27,65.7,60.0,55.7,57.9,55.4,52.3,94,85,73,30.07,29.87,5,1,8,0.00
2012-10-28,57.0,54.0,51.0,53.7,50.7,46.6,97,89,76,29.87,29.61,3,1,8,0.42
2012-10-29,55.6,50.5,48.8,55.6,49.6,47.9,100,97,90,29.62,28.30,11,5,22,3.79
2012-10-30,54.2,43.7,40.6,53.9,43.3,40.3,99,99,98,29.20,28.31,17,8,28,0.64
2012-10-31,45.9,44.1,39.4,40.2,38.7,37.3,93,81,76,29.62,29.52,3,1,10,0.01
2012-11-1,48.3,45.0,42.0,41.0,38.5,36.5,83,78,72,29.69,29.60,4,2,10,0.00
2012-11-2,48.5,43.9,38.4,38.9,35.6,33.3,83,73,58,29.87,29.69,7,3,12,0.00
2012-11-3,44.9,42.6,40.2,34.9,32.7,30.8,75,68,62,30.04,29.86,7,4,14,0.00
2012-11-4,42.4,40.7,39.0,32.3,31.1,29.8,72,68,64,30.06,30.02,5,2,11,0.00
2012-11-5,44.1,36.8,28.6,31.1,27.6,24.6,87,70,54,30.19,30.03,5,2,10,0.00
2012-11-6,41.0,33.7,23.9,29.1,25.7,21.0,91,73,54,30.23,30.05,4,1,7,0.00
2012-11-7,41.6,37.0,33.5,31.0,27.4,23.3,80,68,58,30.06,29.89,3,1,7,0.00
2012-11-8,49.5,42.2,37.8,25.2,21.2,15.7,58,44,29,30.03,29.87,8,4,14,0.00
2012-11-9,54.5,42.4,33.7,35.9,30.4,17.1,87,64,40,30.23,30.02,6,2,12,0.00
2012-11-10,55.9,44.4,32.0,44.1,37.6,29.8,95,78,58,30.39,30.23,3,1,5,0.00
2012-11-11,66.8,53.1,41.4,49.9,44.1,38.9,94,73,48,30.47,30.37,6,2,11,0.00
2012-11-12,66.8,57.4,47.7,58.8,52.4,45.0,95,84,71,30.42,30.11,7,3,17,0.00
2012-11-13,60.8,42.2,32.1,59.2,35.9,27.8,96,80,54,30.47,30.11,9,3,16,0.71
2012-11-14,46.7,37.8,28.9,31.6,28.3,24.6,90,69,49,30.57,30.45,3,0,7,0.00
2012-11-15,46.9,35.9,27.2,33.6,29.4,25.3,94,78,55,30.46,30.31,2,0,6,0.00
2012-11-16,49.9,38.7,32.5,34.2,31.1,27.7,94,76,49,30.46,30.31,3,0,6,0.00
2012-11-17,53.8,39.8,29.4,34.5,30.2,26.4,89,70,41,30.63,30.46,3,0,6,0.00
2012-11-18,50.9,39.2,30.2,40.1,34.2,28.5,95,83,63,30.65,30.54,5,1,11,0.00
2012-11-19,51.7,40.3,29.8,40.9,35.5,28.3,96,84,65,30.54,30.24,3,0,6,0.00
2012-11-20,51.4,42.1,33.6,40.4,36.0,31.6,94,80,58,30.24,30.11,2,0,5,0.00
2012-11-21,53.9,39.6,28.8,38.5,32.2,28.1,98,77,44,30.24,30.14,2,0,6,0.00
2012-11-22,55.2,39.1,25.8,38.6,31.7,24.3,97,77,41,30.29,30.14,2,0,5,0.00
2012-11-23,58.9,45.0,29.5,41.1,34.4,27.0,97,69,41,30.14,29.75,9,2,17,0.00
2012-11-24,42.9,37.2,33.0,27.5,22.5,20.3,61,55,47,29.96,29.78,10,6,23,0.00
2012-11-25,38.2,33.6,28.0,24.1,22.0,19.8,72,62,55,30.03,29.92,6,2,12,0.00
2012-11-26,47.1,34.6,24.4,29.9,25.3,19.5,85,70,46,30.25,30.00,4,1,7,0.00
2012-11-27,37.8,34.2,32.0,33.7,32.0,27.6,97,92,71,30.26,30.20,2,0,3,0.43
2012-11-28,41.2,33.8,28.6,32.5,27.0,22.2,97,77,55,30.36,30.23,5,1,9,0.06
2012-11-29,44.3,35.2,26.3,28.8,24.9,21.0,81,66,49,30.43,30.33,4,1,7,0.01
2012-11-30,49.5,36.3,25.3,34.1,28.6,22.5,91,74,52,30.39,30.33,3,1,6,0.00
2012-12-1,49.4,39.7,34.3,43.2,37.3,30.8,97,91,78,30.48,30.35,3,1,6,0.00
2012-12-2,51.0,44.8,39.9,46.8,43.1,39.1,99,94,82,30.41,30.12,5,1,10,0.01
2012-12-3,66.0,55.3,43.3,56.1,50.6,42.3,99,85,67,30.25,30.13,2,1,6,0.00
2012-12-4,66.3,58.8,50.7,57.8,53.5,49.6,96,83,72,30.22,29.95,4,2,10,0.01
2012-12-5,61.3,48.8,34.2,53.6,36.6,22.3,84,63,49,30.29,29.93,7,4,16,0.00
2012-12-6,40.7,32.8,25.8,25.5,22.9,20.1,81,67,53,30.39,30.25,4,1,6,0.00
2012-12-7,41.9,37.1,30.2,41.4,35.1,24.4,98,92,78,30.25,29.99,3,1,6,0.15
2012-12-8,50.6,45.5,41.9,49.3,45.0,41.4,99,98,95,30.03,29.88,2,0,4,0.02
2012-12-9,46.9,43.5,40.3,46.6,43.1,40.0,99,98,95,30.22,29.97,4,1,8,0.26
2012-12-10,57.5,50.0,40.8,57.2,49.6,40.5,100,99,95,29.97,29.55,6,1,10,0.01
2012-12-11,50.3,41.8,32.0,47.5,35.1,26.6,97,78,54,30.22,29.64,6,2,14,0.06
2012-12-12,41.7,34.5,27.4,32.2,28.2,25.1,94,78,62,30.45,30.22,3,0,7,0.00
2012-12-13,44.8,33.7,25.4,31.3,26.2,22.8,94,76,47,30.48,30.34,3,0,5,0.00
2012-12-14,51.0,35.2,22.3,32.7,26.1,20.3,95,72,39,30.35,30.21,3,0,5,0.00
2012-12-15,47.9,37.8,27.3,36.3,31.0,24.3,92,77,62,30.33,30.15,5,1,9,0.00
2012-12-16,49.7,45.5,40.9,46.1,42.4,34.9,98,89,79,30.16,29.85,5,2,9,0.09
2012-12-17,46.3,44.8,43.7,45.9,44.5,43.4,100,99,98,29.87,29.55,5,2,9,0.22
2012-12-18,55.4,45.7,35.3,50.3,40.8,29.9,100,84,64,29.76,29.49,9,3,14,0.01
2012-12-19,46.0,39.3,32.7,36.3,32.5,29.5,89,77,66,30.17,29.76,7,2,12,0.00
2012-12-20,45.4,36.9,28.9,44.3,32.9,27.1,96,86,65,30.22,29.53,14,3,23,0.56
2012-12-21,52.7,40.3,33.3,52.2,34.5,26.7,98,80,67,29.53,29.21,17,6,26,1.11
2012-12-22,38.9,35.6,30.0,29.3,24.3,21.7,86,63,52,29.96,29.44,12,7,28,0.00
2012-12-23,47.4,34.5,27.2,25.7,22.8,18.9,84,64,33,30.05,29.88,4,1,9,0.00
2012-12-24,37.2,30.3,23.8,31.6,26.3,20.8,98,85,64,30.09,29.91,4,1,9,0.00
2012-12-25,41.6,34.4,28.6,36.8,31.4,25.2,99,89,72,30.28,29.90,4,1,9,0.21
2012-12-26,38.4,31.5,27.8,36.6,28.6,23.4,97,89,80,30.29,29.38,10,3,17,0.04
2012-12-27,38.2,33.5,32.0,36.4,29.0,25.3,97,84,74,29.97,29.36,11,6,18,0.16
2012-12-28,37.6,32.6,26.1,28.7,26.5,23.3,92,78,68,30.14,29.96,5,2,9,0.00
2012-12-29,32.6,30.0,27.5,30.1,27.6,25.5,96,91,79,30.04,29.57,5,2,13,0.00
2012-12-30,35.2,32.1,28.4,26.4,23.1,20.4,78,69,55,30.27,29.75,11,5,18,0.02
2012-12-31,39.6,31.8,25.2,29.8,22.9,19.3,79,70,57,30.29,29.95,4,2,7,0.00
2013-1-1,39.6,36.8,29.7,31.8,29.3,20.3,79,74,67,30.04,29.90,4,2,8,0.00